Terminal Aerodrome Forecast
Issued by NWS

Home | Current Version | Previous Version | Text Only | Print | Product List | Glossary On
Versions: 1 2 3 4 5 6 7 8 9 10 11 12 13 14 15 16 17 18 19 20 21 22 23 24 25 26 27 28 29 30 31 32 33 34
000
FTUS41 KBOX 310535
TAFHYA
TAF
KHYA 310535Z 3106/0106 32018G35KT 6SM -SN OVC035
     FM310800 32020G38KT 4SM -SN OVC025
     FM311200 32024G40KT P6SM OVC035
     FM311900 32024G39KT P6SM SCT250
     FM010500 30019G31KT P6SM SKC=

USA.gov is the U.S. government's official web portal to all federal, state and local government web resources and services.